sensor_id;sensor_type;location;lat;lon;timestamp;temperature;humidity
17200;DHT22;8716;52.268;20.968;2023-04-03T00:01:23;4.10;99.90
17200;DHT22;8716;52.268;20.968;2023-04-03T00:03:52;4.00;99.90
17200;DHT22;8716;52.268;20.968;2023-04-03T00:06:23;4.10;99.90
17200;DHT22;8716;52.268;20.968;2023-04-03T00:08:52;4.00;99.90
17200;DHT22;8716;52.268;20.968;2023-04-03T00:11:20;4.00;99.90
17200;DHT22;8716;52.268;20.968;2023-04-03T00:13:48;3.90;99.90
17200;DHT22;8716;52.268;20.968;2023-04-03T00:16:17;3.80;99.90
17200;DHT22;8716;52.268;20.968;2023-04-03T00:18:47;3.80;99.90
17200;DHT22;8716;52.268;20.968;2023-04-03T00:21:17;3.70;99.90
17200;DHT22;8716;52.268;20.968;2023-04-03T00:23:47;3.70;99.90
17200;DHT22;8716;52.268;20.968;2023-04-03T00:26:15;3.60;99.90
17200;DHT22;8716;52.268;20.968;2023-04-03T00:28:43;3.60;99.90
17200;DHT22;8716;52.268;20.968;2023-04-03T00:31:14;3.60;99.90
17200;DHT22;8716;52.268;20.968;2023-04-03T00:33:43;3.50;99.90
17200;DHT22;8716;52.268;20.968;2023-04-03T00:36:12;3.50;99.90
17200;DHT22;8716;52.268;20.968;2023-04-03T00:38:42;3.40;99.90
17200;DHT22;8716;52.268;20.968;2023-04-03T00:41:13;3.30;99.90
17200;DHT22;8716;52.268;20.968;2023-04-03T00:43:44;3.30;99.90
17200;DHT22;8716;52.268;20.968;2023-04-03T00:46:12;3.30;99.90
17200;DHT22;8716;52.268;20.968;2023-04-03T00:48:42;3.30;99.90
17200;DHT22;8716;52.268;20.968;2023-04-03T00:51:13;3.20;99.90
17200;DHT22;8716;52.268;20.968;2023-04-03T00:53:49;3.10;99.90
17200;DHT22;8716;52.268;20.968;2023-04-03T00:56:21;3.10;99.90
17200;DHT22;8716;52.268;20.968;2023-04-03T00:58:52;3.10;99.90
17200;DHT22;8716;52.268;20.968;2023-04-03T01:01:24;3.10;99.90
17200;DHT22;8716;52.268;20.968;2023-04-03T01:03:53;3.00;99.90
17200;DHT22;8716;52.268;20.968;2023-04-03T01:06:27;3.00;99.90
17200;DHT22;8716;52.268;20.968;2023-04-03T01:09:05;3.00;99.90
17200;DHT22;8716;52.268;20.968;2023-04-03T01:11:36;3.00;99.90
17200;DHT22;8716;52.268;20.968;2023-04-03T01:14:07;3.00;99.90
17200;DHT22;8716;52.268;20.968;2023-04-03T01:16:35;2.90;99.90
17200;DHT22;8716;52.268;20.968;2023-04-03T01:19:07;2.90;99.90
17200;DHT22;8716;52.268;20.968;2023-04-03T01:21:56;2.80;99.90
17200;DHT22;8716;52.268;20.968;2023-04-03T01:24:34;2.80;99.90
17200;DHT22;8716;52.268;20.968;2023-04-03T01:27:23;2.70;99.90
17200;DHT22;8716;52.268;20.968;2023-04-03T01:29:53;2.70;99.90
17200;DHT22;8716;52.268;20.968;2023-04-03T01:32:22;2.70;99.90
17200;DHT22;8716;52.268;20.968;2023-04-03T01:34:51;2.70;99.90
17200;DHT22;8716;52.268;20.968;2023-04-03T01:37:19;2.60;99.90
17200;DHT22;8716;52.268;20.968;2023-04-03T01:39:47;2.70;99.90
17200;DHT22;8716;52.268;20.968;2023-04-03T01:42:15;2.60;99.90
17200;DHT22;8716;52.268;20.968;2023-04-03T01:44:44;2.60;99.90
17200;DHT22;8716;52.268;20.968;2023-04-03T01:47:12;2.60;99.90
17200;DHT22;8716;52.268;20.968;2023-04-03T01:49:42;2.60;99.90
17200;DHT22;8716;52.268;20.968;2023-04-03T01:52:11;2.50;99.90
17200;DHT22;8716;52.268;20.968;2023-04-03T01:54:39;2.50;99.90
17200;DHT22;8716;52.268;20.968;2023-04-03T01:57:08;2.40;99.90
17200;DHT22;8716;52.268;20.968;2023-04-03T02:00:03;2.30;99.90
17200;DHT22;8716;52.268;20.968;2023-04-03T02:02:39;2.40;99.90
17200;DHT22;8716;52.268;20.968;2023-04-03T02:05:09;2.30;99.90
17200;DHT22;8716;52.268;20.968;2023-04-03T02:07:38;2.30;99.90
17200;DHT22;8716;52.268;20.968;2023-04-03T02:10:08;2.20;99.90
17200;DHT22;8716;52.268;20.968;2023-04-03T02:12:36;2.30;99.90
17200;DHT22;8716;52.268;20.968;2023-04-03T02:15:05;2.20;99.90
17200;DHT22;8716;52.268;20.968;2023-04-03T02:17:35;2.20;99.90
17200;DHT22;8716;52.268;20.968;2023-04-03T02:20:08;2.10;99.90
17200;DHT22;8716;52.268;20.968;2023-04-03T02:22:39;2.10;99.90
17200;DHT22;8716;52.268;20.968;2023-04-03T02:25:10;2.10;99.90
17200;DHT22;8716;52.268;20.968;2023-04-03T02:27:40;2.10;99.90
17200;DHT22;8716;52.268;20.968;2023-04-03T02:30:09;2.00;99.90
17200;DHT22;8716;52.268;20.968;2023-04-03T02:32:37;2.10;99.90
17200;DHT22;8716;52.268;20.968;2023-04-03T02:35:09;2.10;99.90
17200;DHT22;8716;52.268;20.968;2023-04-03T02:37:53;2.00;99.90
17200;DHT22;8716;52.268;20.968;2023-04-03T02:40:22;2.00;99.90
17200;DHT22;8716;52.268;20.968;2023-04-03T02:42:51;2.00;99.90
17200;DHT22;8716;52.268;20.968;2023-04-03T02:45:19;2.00;99.90
17200;DHT22;8716;52.268;20.968;2023-04-03T02:47:48;2.00;99.90
17200;DHT22;8716;52.268;20.968;2023-04-03T02:50:20;1.90;99.90
17200;DHT22;8716;52.268;20.968;2023-04-03T02:52:50;1.90;99.90
17200;DHT22;8716;52.268;20.968;2023-04-03T02:55:44;1.90;99.90
17200;DHT22;8716;52.268;20.968;2023-04-03T02:58:12;1.90;99.90
17200;DHT22;8716;52.268;20.968;2023-04-03T03:00:40;1.80;99.90
17200;DHT22;8716;52.268;20.968;2023-04-03T03:03:10;1.90;99.90
17200;DHT22;8716;52.268;20.968;2023-04-03T03:05:41;1.70;99.90
17200;DHT22;8716;52.268;20.968;2023-04-03T03:08:09;1.80;99.90
17200;DHT22;8716;52.268;20.968;2023-04-03T03:10:38;1.80;99.90
17200;DHT22;8716;52.268;20.968;2023-04-03T03:13:06;1.70;99.90
17200;DHT22;8716;52.268;20.968;2023-04-03T03:15:35;1.70;99.90
17200;DHT22;8716;52.268;20.968;2023-04-03T03:18:03;1.70;99.90
17200;DHT22;8716;52.268;20.968;2023-04-03T03:20:32;1.70;99.90
17200;DHT22;8716;52.268;20.968;2023-04-03T03:23:04;1.70;99.90
17200;DHT22;8716;52.268;20.968;2023-04-03T03:25:32;1.70;99.90
17200;DHT22;8716;52.268;20.968;2023-04-03T03:28:01;1.70;99.90
17200;DHT22;8716;52.268;20.968;2023-04-03T03:30:29;1.60;99.90
17200;DHT22;8716;52.268;20.968;2023-04-03T03:32:57;1.50;99.90
17200;DHT22;8716;52.268;20.968;2023-04-03T03:35:26;1.60;99.90
17200;DHT22;8716;52.268;20.968;2023-04-03T03:37:54;1.50;99.90
17200;DHT22;8716;52.268;20.968;2023-04-03T03:40:24;1.40;99.90
17200;DHT22;8716;52.268;20.968;2023-04-03T03:42:55;1.40;99.90
17200;DHT22;8716;52.268;20.968;2023-04-03T03:45:23;1.30;99.90
17200;DHT22;8716;52.268;20.968;2023-04-03T03:47:52;1.40;99.90
17200;DHT22;8716;52.268;20.968;2023-04-03T03:50:20;1.40;99.90
17200;DHT22;8716;52.268;20.968;2023-04-03T03:52:49;1.30;99.90
17200;DHT22;8716;52.268;20.968;2023-04-03T03:55:21;1.40;99.90
17200;DHT22;8716;52.268;20.968;2023-04-03T03:57:54;1.40;99.90
17200;DHT22;8716;52.268;20.968;2023-04-03T04:00:22;1.30;99.90
17200;DHT22;8716;52.268;20.968;2023-04-03T04:02:54;1.30;99.90
17200;DHT22;8716;52.268;20.968;2023-04-03T04:05:25;1.20;99.90
17200;DHT22;8716;52.268;20.968;2023-04-03T04:07:54;1.20;99.90
17200;DHT22;8716;52.268;20.968;2023-04-03T04:10:23;1.20;99.90
17200;DHT22;8716;52.268;20.968;2023-04-03T04:12:53;1.20;99.90
17200;DHT22;8716;52.268;20.968;2023-04-03T04:15:26;1.20;99.90
17200;DHT22;8716;52.268;20.968;2023-04-03T04:17:56;1.20;99.90
17200;DHT22;8716;52.268;20.968;2023-04-03T04:20:25;1.10;99.90
17200;DHT22;8716;52.268;20.968;2023-04-03T04:22:53;1.10;99.90
17200;DHT22;8716;52.268;20.968;2023-04-03T04:25:22;1.10;99.90
17200;DHT22;8716;52.268;20.968;2023-04-03T04:27:51;1.10;99.90
17200;DHT22;8716;52.268;20.968;2023-04-03T04:30:22;1.10;99.90
17200;DHT22;8716;52.268;20.968;2023-04-03T04:32:54;1.10;99.90
17200;DHT22;8716;52.268;20.968;2023-04-03T04:35:23;1.10;99.90
17200;DHT22;8716;52.268;20.968;2023-04-03T04:37:52;1.10;99.90
17200;DHT22;8716;52.268;20.968;2023-04-03T04:40:20;1.10;99.90
17200;DHT22;8716;52.268;20.968;2023-04-03T04:42:49;1.20;99.90
17200;DHT22;8716;52.268;20.968;2023-04-03T04:45:18;1.20;99.90
17200;DHT22;8716;52.268;20.968;2023-04-03T04:47:48;1.10;99.90
17200;DHT22;8716;52.268;20.968;2023-04-03T04:50:19;1.10;99.90
17200;DHT22;8716;52.268;20.968;2023-04-03T04:52:52;1.20;99.90
17200;DHT22;8716;52.268;20.968;2023-04-03T04:55:20;1.20;99.90
17200;DHT22;8716;52.268;20.968;2023-04-03T04:57:49;1.30;99.90
17200;DHT22;8716;52.268;20.968;2023-04-03T05:00:20;1.30;99.90
17200;DHT22;8716;52.268;20.968;2023-04-03T05:02:49;1.20;99.90
17200;DHT22;8716;52.268;20.968;2023-04-03T05:05:19;1.30;99.90
17200;DHT22;8716;52.268;20.968;2023-04-03T05:07:47;1.30;99.90
17200;DHT22;8716;52.268;20.968;2023-04-03T05:10:16;1.30;99.90
17200;DHT22;8716;52.268;20.968;2023-04-03T05:12:45;1.30;99.90
17200;DHT22;8716;52.268;20.968;2023-04-03T05:15:14;1.30;99.90
17200;DHT22;8716;52.268;20.968;2023-04-03T05:17:51;1.40;99.90
17200;DHT22;8716;52.268;20.968;2023-04-03T05:20:20;1.50;99.90
17200;DHT22;8716;52.268;20.968;2023-04-03T05:22:49;1.50;99.90
17200;DHT22;8716;52.268;20.968;2023-04-03T05:25:19;1.50;99.90
17200;DHT22;8716;52.268;20.968;2023-04-03T05:27:47;1.50;99.90
17200;DHT22;8716;52.268;20.968;2023-04-03T05:30:16;1.60;99.90
17200;DHT22;8716;52.268;20.968;2023-04-03T05:32:46;1.70;99.90
17200;DHT22;8716;52.268;20.968;2023-04-03T05:35:20;1.70;99.90
17200;DHT22;8716;52.268;20.968;2023-04-03T05:37:55;1.80;99.90
17200;DHT22;8716;52.268;20.968;2023-04-03T05:40:23;1.70;99.90
17200;DHT22;8716;52.268;20.968;2023-04-03T05:42:55;1.80;99.90
17200;DHT22;8716;52.268;20.968;2023-04-03T05:45:26;1.80;99.90
17200;DHT22;8716;52.268;20.968;2023-04-03T05:47:54;1.90;99.90
17200;DHT22;8716;52.268;20.968;2023-04-03T05:50:24;2.00;99.90
17200;DHT22;8716;52.268;20.968;2023-04-03T05:52:57;1.90;99.90
17200;DHT22;8716;52.268;20.968;2023-04-03T05:55:28;2.00;99.90
17200;DHT22;8716;52.268;20.968;2023-04-03T05:57:56;1.90;99.90
17200;DHT22;8716;52.268;20.968;2023-04-03T06:00:25;2.00;99.90
17200;DHT22;8716;52.268;20.968;2023-04-03T06:03:00;2.10;99.90
17200;DHT22;8716;52.268;20.968;2023-04-03T06:05:30;2.10;99.90
17200;DHT22;8716;52.268;20.968;2023-04-03T06:07:58;2.10;99.90
17200;DHT22;8716;52.268;20.968;2023-04-03T06:10:27;2.10;99.90
17200;DHT22;8716;52.268;20.968;2023-04-03T06:12:55;2.20;99.90
17200;DHT22;8716;52.268;20.968;2023-04-03T06:15:23;2.20;99.90
17200;DHT22;8716;52.268;20.968;2023-04-03T06:17:52;2.20;99.90
17200;DHT22;8716;52.268;20.968;2023-04-03T06:20:23;2.20;99.90
17200;DHT22;8716;52.268;20.968;2023-04-03T06:22:54;2.20;99.90
17200;DHT22;8716;52.268;20.968;2023-04-03T06:25:22;2.20;99.90
17200;DHT22;8716;52.268;20.968;2023-04-03T06:27:51;2.20;99.90
17200;DHT22;8716;52.268;20.968;2023-04-03T06:30:19;2.30;99.90
17200;DHT22;8716;52.268;20.968;2023-04-03T06:32:47;2.30;99.90
17200;DHT22;8716;52.268;20.968;2023-04-03T06:35:18;2.30;99.90
17200;DHT22;8716;52.268;20.968;2023-04-03T06:37:47;2.30;99.90
17200;DHT22;8716;52.268;20.968;2023-04-03T06:40:21;2.40;99.90
17200;DHT22;8716;52.268;20.968;2023-04-03T06:42:49;2.40;99.90
17200;DHT22;8716;52.268;20.968;2023-04-03T06:45:19;2.50;99.90
17200;DHT22;8716;52.268;20.968;2023-04-03T06:47:48;2.50;99.90
17200;DHT22;8716;52.268;20.968;2023-04-03T06:50:17;2.60;99.90
17200;DHT22;8716;52.268;20.968;2023-04-03T06:52:45;2.60;99.90
17200;DHT22;8716;52.268;20.968;2023-04-03T06:55:17;2.70;99.90
17200;DHT22;8716;52.268;20.968;2023-04-03T06:57:45;2.70;99.90
17200;DHT22;8716;52.268;20.968;2023-04-03T07:00:14;2.70;99.90
17200;DHT22;8716;52.268;20.968;2023-04-03T07:02:43;2.80;99.90
17200;DHT22;8716;52.268;20.968;2023-04-03T07:05:11;2.90;99.90
17200;DHT22;8716;52.268;20.968;2023-04-03T07:07:40;2.90;99.90
17200;DHT22;8716;52.268;20.968;2023-04-03T07:10:08;3.10;99.90
17200;DHT22;8716;52.268;20.968;2023-04-03T07:12:38;3.10;99.90
17200;DHT22;8716;52.268;20.968;2023-04-03T07:15:07;3.20;99.90
17200;DHT22;8716;52.268;20.968;2023-04-03T07:17:36;3.30;99.90
17200;DHT22;8716;52.268;20.968;2023-04-03T07:20:06;3.30;99.90
17200;DHT22;8716;52.268;20.968;2023-04-03T07:22:34;3.40;99.90
17200;DHT22;8716;52.268;20.968;2023-04-03T07:25:03;3.40;99.90
17200;DHT22;8716;52.268;20.968;2023-04-03T07:27:37;3.50;99.90
17200;DHT22;8716;52.268;20.968;2023-04-03T07:30:07;3.50;99.90
17200;DHT22;8716;52.268;20.968;2023-04-03T07:32:36;3.50;99.90
17200;DHT22;8716;52.268;20.968;2023-04-03T07:35:04;3.60;99.90
17200;DHT22;8716;52.268;20.968;2023-04-03T07:37:32;3.70;99.90
17200;DHT22;8716;52.268;20.968;2023-04-03T07:40:01;3.80;99.90
17200;DHT22;8716;52.268;20.968;2023-04-03T07:42:30;3.90;99.90
17200;DHT22;8716;52.268;20.968;2023-04-03T07:45:00;4.10;99.90
17200;DHT22;8716;52.268;20.968;2023-04-03T07:47:28;4.10;99.90
17200;DHT22;8716;52.268;20.968;2023-04-03T07:49:57;4.10;99.90
17200;DHT22;8716;52.268;20.968;2023-04-03T07:52:25;4.20;99.90
17200;DHT22;8716;52.268;20.968;2023-04-03T07:54:53;4.30;99.90
17200;DHT22;8716;52.268;20.968;2023-04-03T07:57:25;4.30;99.90
17200;DHT22;8716;52.268;20.968;2023-04-03T07:59:53;4.40;99.90
17200;DHT22;8716;52.268;20.968;2023-04-03T08:02:22;4.50;99.90
17200;DHT22;8716;52.268;20.968;2023-04-03T08:04:51;4.60;99.90
17200;DHT22;8716;52.268;20.968;2023-04-03T08:07:19;4.70;99.90
17200;DHT22;8716;52.268;20.968;2023-04-03T08:09:47;4.90;99.90
17200;DHT22;8716;52.268;20.968;2023-04-03T08:12:16;5.00;99.90
17200;DHT22;8716;52.268;20.968;2023-04-03T08:14:44;5.10;99.90
17200;DHT22;8716;52.268;20.968;2023-04-03T08:17:12;5.10;99.90
17200;DHT22;8716;52.268;20.968;2023-04-03T08:19:42;5.20;99.90
17200;DHT22;8716;52.268;20.968;2023-04-03T08:22:10;5.20;99.90
17200;DHT22;8716;52.268;20.968;2023-04-03T08:24:38;5.30;99.90
17200;DHT22;8716;52.268;20.968;2023-04-03T08:27:24;5.50;99.90
17200;DHT22;8716;52.268;20.968;2023-04-03T08:29:54;5.60;99.90
17200;DHT22;8716;52.268;20.968;2023-04-03T08:32:22;6.40;99.90
17200;DHT22;8716;52.268;20.968;2023-04-03T08:34:52;8.20;99.90
17200;DHT22;8716;52.268;20.968;2023-04-03T08:37:21;10.30;98.70
17200;DHT22;8716;52.268;20.968;2023-04-03T08:39:49;12.30;92.30
17200;DHT22;8716;52.268;20.968;2023-04-03T08:42:26;14.40;81.90
17200;DHT22;8716;52.268;20.968;2023-04-03T08:45:05;16.10;77.10
17200;DHT22;8716;52.268;20.968;2023-04-03T08:47:39;17.50;67.90
17200;DHT22;8716;52.268;20.968;2023-04-03T08:50:29;18.80;64.00
17200;DHT22;8716;52.268;20.968;2023-04-03T08:53:01;19.70;58.90
17200;DHT22;8716;52.268;20.968;2023-04-03T08:55:33;20.70;56.60
17200;DHT22;8716;52.268;20.968;2023-04-03T08:58:03;21.60;51.40
17200;DHT22;8716;52.268;20.968;2023-04-03T09:00:41;22.20;49.50
17200;DHT22;8716;52.268;20.968;2023-04-03T09:03:13;22.50;47.70
17200;DHT22;8716;52.268;20.968;2023-04-03T09:05:48;22.30;46.60
17200;DHT22;8716;52.268;20.968;2023-04-03T09:08:22;21.90;47.60
17200;DHT22;8716;52.268;20.968;2023-04-03T09:11:09;21.80;49.20
17200;DHT22;8716;52.268;20.968;2023-04-03T09:13:45;22.60;46.40
17200;DHT22;8716;52.268;20.968;2023-04-03T09:16:25;23.20;46.40
17200;DHT22;8716;52.268;20.968;2023-04-03T09:19:02;23.80;45.20
17200;DHT22;8716;52.268;20.968;2023-04-03T09:21:37;24.30;44.90
17200;DHT22;8716;52.268;20.968;2023-04-03T09:24:11;24.60;43.90
17200;DHT22;8716;52.268;20.968;2023-04-03T09:26:43;24.90;43.80
17200;DHT22;8716;52.268;20.968;2023-04-03T09:29:18;24.20;42.50
17200;DHT22;8716;52.268;20.968;2023-04-03T09:31:49;23.30;44.10
17200;DHT22;8716;52.268;20.968;2023-04-03T09:34:24;23.30;44.10
17200;DHT22;8716;52.268;20.968;2023-04-03T09:36:57;23.50;44.80
17200;DHT22;8716;52.268;20.968;2023-04-03T09:39:51;24.20;43.60
17200;DHT22;8716;52.268;20.968;2023-04-03T09:42:23;24.70;43.80
17200;DHT22;8716;52.268;20.968;2023-04-03T09:44:55;24.90;42.20
17200;DHT22;8716;52.268;20.968;2023-04-03T09:47:26;25.20;42.30
17200;DHT22;8716;52.268;20.968;2023-04-03T09:50:15;24.90;41.00
17200;DHT22;8716;52.268;20.968;2023-04-03T09:52:51;25.00;41.80
17200;DHT22;8716;52.268;20.968;2023-04-03T09:55:21;25.10;41.00
17200;DHT22;8716;52.268;20.968;2023-04-03T09:57:54;24.70;41.00
17200;DHT22;8716;52.268;20.968;2023-04-03T10:00:26;24.40;41.30
17200;DHT22;8716;52.268;20.968;2023-04-03T10:02:56;24.60;41.80
17200;DHT22;8716;52.268;20.968;2023-04-03T10:05:33;25.30;41.50
17200;DHT22;8716;52.268;20.968;2023-04-03T10:08:22;25.70;41.20
17200;DHT22;8716;52.268;20.968;2023-04-03T10:11:11;25.90;40.40
17200;DHT22;8716;52.268;20.968;2023-04-03T10:13:55;26.10;40.40
17200;DHT22;8716;52.268;20.968;2023-04-03T10:16:34;26.40;39.50
17200;DHT22;8716;52.268;20.968;2023-04-03T10:19:29;25.20;39.60
17200;DHT22;8716;52.268;20.968;2023-04-03T10:22:02;24.80;40.50
17200;DHT22;8716;52.268;20.968;2023-04-03T10:24:36;24.60;40.80
17200;DHT22;8716;52.268;20.968;2023-04-03T10:27:11;24.50;41.00
17200;DHT22;8716;52.268;20.968;2023-04-03T10:29:47;24.40;41.00
17200;DHT22;8716;52.268;20.968;2023-04-03T10:32:31;24.10;40.50
17200;DHT22;8716;52.268;20.968;2023-04-03T10:35:11;23.30;40.60
17200;DHT22;8716;52.268;20.968;2023-04-03T10:37:53;23.10;41.30
17200;DHT22;8716;52.268;20.968;2023-04-03T10:40:30;23.20;42.30
17200;DHT22;8716;52.268;20.968;2023-04-03T10:43:08;23.50;41.60
17200;DHT22;8716;52.268;20.968;2023-04-03T10:45:49;23.80;41.50
17200;DHT22;8716;52.268;20.968;2023-04-03T10:48:31;24.20;41.00
17200;DHT22;8716;52.268;20.968;2023-04-03T10:51:10;24.30;41.20
17200;DHT22;8716;52.268;20.968;2023-04-03T10:53:47;24.10;41.50
17200;DHT22;8716;52.268;20.968;2023-04-03T10:56:26;23.20;42.10
17200;DHT22;8716;52.268;20.968;2023-04-03T10:59:05;21.80;42.20
17200;DHT22;8716;52.268;20.968;2023-04-03T11:01:39;21.00;43.60
17200;DHT22;8716;52.268;20.968;2023-04-03T11:04:10;20.60;44.60
17200;DHT22;8716;52.268;20.968;2023-04-03T11:06:43;19.90;44.80
17200;DHT22;8716;52.268;20.968;2023-04-03T11:09:20;18.90;45.30
17200;DHT22;8716;52.268;20.968;2023-04-03T11:11:56;17.70;46.00
17200;DHT22;8716;52.268;20.968;2023-04-03T11:14:28;16.80;47.30
17200;DHT22;8716;52.268;20.968;2023-04-03T11:17:05;16.20;48.80
17200;DHT22;8716;52.268;20.968;2023-04-03T11:19:41;16.10;49.30
17200;DHT22;8716;52.268;20.968;2023-04-03T11:22:16;16.20;50.40
17200;DHT22;8716;52.268;20.968;2023-04-03T11:24:57;16.10;50.20
17200;DHT22;8716;52.268;20.968;2023-04-03T11:27:33;15.90;50.50
17200;DHT22;8716;52.268;20.968;2023-04-03T11:30:09;15.60;49.70
17200;DHT22;8716;52.268;20.968;2023-04-03T11:32:52;15.20;50.80
17200;DHT22;8716;52.268;20.968;2023-04-03T11:35:23;14.70;51.00
17200;DHT22;8716;52.268;20.968;2023-04-03T11:37:53;14.50;52.00
17200;DHT22;8716;52.268;20.968;2023-04-03T11:40:25;14.50;52.10
17200;DHT22;8716;52.268;20.968;2023-04-03T11:43:04;14.10;52.40
17200;DHT22;8716;52.268;20.968;2023-04-03T11:45:38;13.90;53.30
17200;DHT22;8716;52.268;20.968;2023-04-03T11:48:47;14.10;53.20
17200;DHT22;8716;52.268;20.968;2023-04-03T11:51:42;14.40;52.30
17200;DHT22;8716;52.268;20.968;2023-04-03T11:54:46;14.40;52.50
17200;DHT22;8716;52.268;20.968;2023-04-03T12:00:52;13.60;52.90
17200;DHT22;8716;52.268;20.968;2023-04-03T12:07:01;13.00;54.40
17200;DHT22;8716;52.268;20.968;2023-04-03T12:09:56;12.90;55.40
17200;DHT22;8716;52.268;20.968;2023-04-03T12:12:34;12.70;55.20
17200;DHT22;8716;52.268;20.968;2023-04-03T12:15:25;12.50;55.10
17200;DHT22;8716;52.268;20.968;2023-04-03T12:17:55;12.10;55.20
17200;DHT22;8716;52.268;20.968;2023-04-03T12:23:32;12.30;56.20
17200;DHT22;8716;52.268;20.968;2023-04-03T12:26:18;12.30;55.50
17200;DHT22;8716;52.268;20.968;2023-04-03T12:28:50;12.10;55.50
17200;DHT22;8716;52.268;20.968;2023-04-03T12:31:22;11.90;56.00
17200;DHT22;8716;52.268;20.968;2023-04-03T12:34:04;11.80;55.90
17200;DHT22;8716;52.268;20.968;2023-04-03T12:36:45;11.90;56.20
17200;DHT22;8716;52.268;20.968;2023-04-03T12:39:39;12.10;55.80
17200;DHT22;8716;52.268;20.968;2023-04-03T12:42:21;12.20;56.00
17200;DHT22;8716;52.268;20.968;2023-04-03T12:44:58;12.20;56.10
17200;DHT22;8716;52.268;20.968;2023-04-03T12:47:30;12.00;56.30
17200;DHT22;8716;52.268;20.968;2023-04-03T12:50:04;11.80;55.80
17200;DHT22;8716;52.268;20.968;2023-04-03T12:52:39;11.70;56.20
17200;DHT22;8716;52.268;20.968;2023-04-03T12:55:15;11.70;56.30
17200;DHT22;8716;52.268;20.968;2023-04-03T12:57:44;11.70;55.80
17200;DHT22;8716;52.268;20.968;2023-04-03T13:00:22;11.80;56.10
17200;DHT22;8716;52.268;20.968;2023-04-03T13:02:54;11.90;56.00
17200;DHT22;8716;52.268;20.968;2023-04-03T13:05:24;11.90;55.40
17200;DHT22;8716;52.268;20.968;2023-04-03T13:07:58;11.90;55.90
17200;DHT22;8716;52.268;20.968;2023-04-03T13:10:26;11.70;56.30
17200;DHT22;8716;52.268;20.968;2023-04-03T13:12:55;11.50;56.50
17200;DHT22;8716;52.268;20.968;2023-04-03T13:15:29;11.20;56.90
17200;DHT22;8716;52.268;20.968;2023-04-03T13:17:57;11.00;57.30
17200;DHT22;8716;52.268;20.968;2023-04-03T13:20:29;10.90;57.70
17200;DHT22;8716;52.268;20.968;2023-04-03T13:23:01;10.70;57.90
17200;DHT22;8716;52.268;20.968;2023-04-03T13:25:34;10.70;58.20
17200;DHT22;8716;52.268;20.968;2023-04-03T13:28:05;10.70;58.70
17200;DHT22;8716;52.268;20.968;2023-04-03T13:30:41;10.60;58.90
17200;DHT22;8716;52.268;20.968;2023-04-03T13:33:24;10.50;58.60
17200;DHT22;8716;52.268;20.968;2023-04-03T13:36:02;10.40;58.90
17200;DHT22;8716;52.268;20.968;2023-04-03T13:38:32;10.40;59.00
17200;DHT22;8716;52.268;20.968;2023-04-03T13:41:21;10.30;59.40
17200;DHT22;8716;52.268;20.968;2023-04-03T13:43:53;10.20;59.50
17200;DHT22;8716;52.268;20.968;2023-04-03T13:46:32;10.20;59.50
17200;DHT22;8716;52.268;20.968;2023-04-03T13:49:18;10.10;59.30
17200;DHT22;8716;52.268;20.968;2023-04-03T13:51:49;9.90;59.00
17200;DHT22;8716;52.268;20.968;2023-04-03T13:54:35;9.90;59.60
17200;DHT22;8716;52.268;20.968;2023-04-03T13:57:12;9.90;59.70
17200;DHT22;8716;52.268;20.968;2023-04-03T13:59:41;10.00;59.80
17200;DHT22;8716;52.268;20.968;2023-04-03T14:02:15;10.00;59.60
17200;DHT22;8716;52.268;20.968;2023-04-03T14:04:51;10.00;59.70
17200;DHT22;8716;52.268;20.968;2023-04-03T14:07:21;10.10;60.00
17200;DHT22;8716;52.268;20.968;2023-04-03T14:09:51;10.00;59.90
17200;DHT22;8716;52.268;20.968;2023-04-03T14:12:25;10.00;60.30
17200;DHT22;8716;52.268;20.968;2023-04-03T14:15:02;10.00;60.10
17200;DHT22;8716;52.268;20.968;2023-04-03T14:17:30;9.80;60.00
17200;DHT22;8716;52.268;20.968;2023-04-03T14:19:59;9.70;60.40
17200;DHT22;8716;52.268;20.968;2023-04-03T14:22:31;9.70;60.70
17200;DHT22;8716;52.268;20.968;2023-04-03T14:25:04;9.70;60.30
17200;DHT22;8716;52.268;20.968;2023-04-03T14:27:35;9.50;60.70
17200;DHT22;8716;52.268;20.968;2023-04-03T14:30:09;9.40;61.30
17200;DHT22;8716;52.268;20.968;2023-04-03T14:32:37;9.40;61.50
17200;DHT22;8716;52.268;20.968;2023-04-03T14:35:06;9.30;61.20
17200;DHT22;8716;52.268;20.968;2023-04-03T14:37:36;9.30;61.30
17200;DHT22;8716;52.268;20.968;2023-04-03T14:40:06;9.20;61.40
17200;DHT22;8716;52.268;20.968;2023-04-03T14:42:36;9.10;61.30
17200;DHT22;8716;52.268;20.968;2023-04-03T14:45:07;9.00;61.60
17200;DHT22;8716;52.268;20.968;2023-04-03T14:47:40;8.90;61.70
17200;DHT22;8716;52.268;20.968;2023-04-03T14:50:14;8.80;62.50
17200;DHT22;8716;52.268;20.968;2023-04-03T14:52:44;8.80;63.20
17200;DHT22;8716;52.268;20.968;2023-04-03T14:55:15;8.70;63.40
17200;DHT22;8716;52.268;20.968;2023-04-03T14:57:44;8.70;63.50
17200;DHT22;8716;52.268;20.968;2023-04-03T15:00:14;8.60;63.60
17200;DHT22;8716;52.268;20.968;2023-04-03T15:02:43;8.50;63.10
17200;DHT22;8716;52.268;20.968;2023-04-03T15:05:14;8.50;63.20
17200;DHT22;8716;52.268;20.968;2023-04-03T15:07:47;8.40;63.60
17200;DHT22;8716;52.268;20.968;2023-04-03T15:10:18;8.30;63.90
17200;DHT22;8716;52.268;20.968;2023-04-03T15:12:48;8.30;64.00
17200;DHT22;8716;52.268;20.968;2023-04-03T15:15:18;8.30;63.80
17200;DHT22;8716;52.268;20.968;2023-04-03T15:17:51;8.30;63.90
17200;DHT22;8716;52.268;20.968;2023-04-03T15:20:22;8.30;64.10
17200;DHT22;8716;52.268;20.968;2023-04-03T15:22:53;8.20;64.20
17200;DHT22;8716;52.268;20.968;2023-04-03T15:25:23;8.20;64.40
17200;DHT22;8716;52.268;20.968;2023-04-03T15:27:52;8.10;64.80
17200;DHT22;8716;52.268;20.968;2023-04-03T15:30:21;8.10;65.10
17200;DHT22;8716;52.268;20.968;2023-04-03T15:32:50;8.00;65.50
17200;DHT22;8716;52.268;20.968;2023-04-03T15:35:22;8.00;65.50
17200;DHT22;8716;52.268;20.968;2023-04-03T15:37:52;8.00;65.40
17200;DHT22;8716;52.268;20.968;2023-04-03T15:40:20;8.00;65.60
17200;DHT22;8716;52.268;20.968;2023-04-03T15:42:48;7.90;65.80
17200;DHT22;8716;52.268;20.968;2023-04-03T15:45:19;7.80;65.70
17200;DHT22;8716;52.268;20.968;2023-04-03T15:47:48;7.80;65.80
17200;DHT22;8716;52.268;20.968;2023-04-03T15:50:18;7.80;66.00
17200;DHT22;8716;52.268;20.968;2023-04-03T15:52:49;7.70;66.50
17200;DHT22;8716;52.268;20.968;2023-04-03T15:55:23;7.70;66.70
17200;DHT22;8716;52.268;20.968;2023-04-03T15:57:52;7.60;67.00
17200;DHT22;8716;52.268;20.968;2023-04-03T16:00:22;7.60;67.50
17200;DHT22;8716;52.268;20.968;2023-04-03T16:02:53;7.50;67.90
17200;DHT22;8716;52.268;20.968;2023-04-03T16:05:23;7.50;68.20
17200;DHT22;8716;52.268;20.968;2023-04-03T16:07:54;7.50;68.00
17200;DHT22;8716;52.268;20.968;2023-04-03T16:10:24;7.50;67.80
17200;DHT22;8716;52.268;20.968;2023-04-03T16:12:52;7.40;67.90
17200;DHT22;8716;52.268;20.968;2023-04-03T16:15:20;7.30;67.90
17200;DHT22;8716;52.268;20.968;2023-04-03T16:17:48;7.30;67.90
17200;DHT22;8716;52.268;20.968;2023-04-03T16:20:17;7.30;68.00
17200;DHT22;8716;52.268;20.968;2023-04-03T16:22:47;7.30;68.10